Temp: 15.8°C   Baro: 1012.1mb
  Wind: 11.0mph   Dir: WNW (283°)
  Rain: 2.0mm (0.0mm/hr)
  Solar: 1,046W/m2  Hum: 72%
 
Bath Spa Weather Station Historical Data
Daily Summary for June 5, 2019 Units:  Both    English   Metric
Daily Weekly Monthly Yearly Custom
  High: Low: Average:
Temperature: 75.1 °F /  23.9 °C 56.4 °F /  13.6 °C 65.3 °F /  18.5 °C
Dew Point: 57.6 °F /  14.2 °C 41.5 °F /  5.3 °C 52.8 °F /  11.6 °C
Humidity: 87% 34.4% 66%
Wind Speed: 7.5mph /  12.1km/h - 2.1mph /  3.4km/h
Wind Gust: 13mph /  20.9km/h - -
Wind- - West
Pressure: 30.18 in /  1021.9 hPa 30.00 in /  1015.8 hPa -
Precipitation: 0.00 in /  0 mm    
Historical Graphs
 
 
Tabular Data for June 5, 2019
Time Temperature Dew Point Pressure Wind Wind Speed Wind Gust Humidity Rainfall Rate (Hourly) solar
00:04 61.2 °F /  16.2 °C 52.6 °F /  11.4 °C 30.17in /  1021.6hPa Calm     73% 0.00in /  0mm 0 W/m2
00:09 61.2 °F /  16.2 °C 52.5 °F /  11.4 °C 30.17in /  1021.6hPa Calm     73% 0.00in /  0mm 0 W/m2
00:14 61.1 °F /  16.2 °C 52.4 °F /  11.3 °C 30.17in /  1021.6hPa Calm     73% 0.00in /  0mm 0 W/m2
00:19 60.8 °F /  16 °C 52.2 °F /  11.2 °C 30.17in /  1021.6hPa Calm     73% 0.00in /  0mm 0 W/m2
00:24 60.6 °F /  15.9 °C 52.1 °F /  11.2 °C 30.17in /  1021.6hPa Calm     73.2% 0.00in /  0mm 0 W/m2
00:29 60.5 °F /  15.8 °C 52.3 °F /  11.3 °C 30.17in /  1021.6hPa Calm     74% 0.00in /  0mm 0 W/m2
00:34 60.4 °F /  15.8 °C 52.2 °F /  11.2 °C 30.17in /  1021.6hPa Calm     74% 0.00in /  0mm 0 W/m2
00:39 60.3 °F /  15.7 °C 52.1 °F /  11.2 °C 30.17in /  1021.6hPa Calm     74% 0.00in /  0mm 0 W/m2
00:44 60.3 °F /  15.7 °C 52 °F /  11.1 °C 30.17in /  1021.6hPa Calm     74% 0.00in /  0mm 0 W/m2
00:49 60.3 °F /  15.7 °C 52 °F /  11.1 °C 30.17in /  1021.6hPa Calm     74% 0.00in /  0mm 0 W/m2
00:54 60.3 °F /  15.7 °C 52 °F /  11.1 °C 30.17in /  1021.6hPa Calm     74% 0.00in /  0mm 0 W/m2
00:59 60.3 °F /  15.7 °C 52 °F /  11.1 °C 30.17in /  1021.6hPa Calm     74% 0.00in /  0mm 0 W/m2
01:04 60.3 °F /  15.7 °C 52 °F /  11.1 °C 30.17in /  1021.6hPa Calm     74% 0.00in /  0mm 0 W/m2
01:09 60.1 °F /  15.6 °C 51.9 °F /  11.1 °C 30.17in /  1021.6hPa Calm     74.3% 0.00in /  0mm 0 W/m2
01:14 59.9 °F /  15.5 °C 52 °F /  11.1 °C 30.17in /  1021.6hPa West 0.5mph /  0.8km/h 3mph /  4.8km/h 75% 0.00in /  0mm 0 W/m2
01:19 59.7 °F /  15.4 °C 51.8 °F /  11 °C 30.17in /  1021.6hPa West 0.9mph /  1.4km/h 3mph /  4.8km/h 75% 0.00in /  0mm 0 W/m2
01:24 59.5 °F /  15.3 °C 51.6 °F /  10.9 °C 30.17in /  1021.6hPa West 0.2mph /  0.3km/h 3mph /  4.8km/h 75.1% 0.00in /  0mm 0 W/m2
01:29 59.4 °F /  15.2 °C 51.8 °F /  11 °C 30.17in /  1021.6hPa West 0.6mph /  1km/h 2mph /  3.2km/h 76% 0.00in /  0mm 0 W/m2
01:34 59.4 °F /  15.2 °C 52 °F /  11.1 °C 30.18in /  1021.9hPa West 0.3mph /  0.5km/h 2mph /  3.2km/h 76.7% 0.00in /  0mm 0 W/m2
01:39 59.2 °F /  15.1 °C 52 °F /  11.1 °C 30.18in /  1021.9hPa West 0.6mph /  1km/h 3mph /  4.8km/h 77% 0.00in /  0mm 0 W/m2
01:44 59 °F /  15 °C 52.2 °F /  11.2 °C 30.18in /  1021.9hPa West 0.5mph /  0.8km/h 3mph /  4.8km/h 78% 0.00in /  0mm 0 W/m2
01:49 59 °F /  15 °C 52.4 °F /  11.3 °C 30.18in /  1021.9hPa Calm     78.8% 0.00in /  0mm 0 W/m2
01:54 59 °F /  15 °C 52.5 °F /  11.4 °C 30.17in /  1021.6hPa West 0.1mph /  0.2km/h 3mph /  4.8km/h 79% 0.00in /  0mm 0 W/m2
01:59 59 °F /  15 °C 52.5 °F /  11.4 °C 30.17in /  1021.6hPa Calm     79% 0.00in /  0mm 0 W/m2
02:04 59 °F /  15 °C 52.5 °F /  11.4 °C 30.17in /  1021.6hPa Calm     79% 0.00in /  0mm 0 W/m2
02:09 59 °F /  15 °C 52.5 °F /  11.4 °C 30.17in /  1021.6hPa Calm     79% 0.00in /  0mm 0 W/m2
02:14 59 °F /  15 °C 52.5 °F /  11.4 °C 30.17in /  1021.6hPa Calm     79% 0.00in /  0mm 0 W/m2
02:19 59 °F /  15 °C 52.5 °F /  11.4 °C 30.17in /  1021.6hPa Calm     79% 0.00in /  0mm 0 W/m2
02:24 58.8 °F /  14.9 °C 52.3 °F /  11.3 °C 30.16in /  1021.2hPa Calm     79% 0.00in /  0mm 0 W/m2
02:29 58.7 °F /  14.8 °C 52.2 °F /  11.2 °C 30.16in /  1021.2hPa Calm     79% 0.00in /  0mm 0 W/m2
02:34 58.6 °F /  14.8 °C 52.5 °F /  11.4 °C 30.16in /  1021.2hPa Calm     79.9% 0.00in /  0mm 0 W/m2
02:39 58.4 °F /  14.7 °C 52.3 °F /  11.3 °C 30.16in /  1021.2hPa Calm     80% 0.00in /  0mm 0 W/m2
02:44 58.1 °F /  14.5 °C 52 °F /  11.1 °C 30.16in /  1021.2hPa Calm     80% 0.00in /  0mm 0 W/m2
02:49 58 °F /  14.4 °C 52 °F /  11.1 °C 30.16in /  1021.2hPa Calm     80.3% 0.00in /  0mm 0 W/m2
02:54 57.9 °F /  14.4 °C 52.2 °F /  11.2 °C 30.16in /  1021.2hPa Calm     81% 0.00in /  0mm 0 W/m2
02:59 57.9 °F /  14.4 °C 52.2 °F /  11.2 °C 30.16in /  1021.2hPa Calm     81% 0.00in /  0mm 0 W/m2
03:04 58.1 °F /  14.5 °C 52.3 °F /  11.3 °C 30.16in /  1021.2hPa Calm     81% 0.00in /  0mm 0 W/m2
03:09 58.1 °F /  14.5 °C 52.3 °F /  11.3 °C 30.16in /  1021.2hPa Calm     81% 0.00in /  0mm 0 W/m2
03:14 58.1 °F /  14.5 °C 52.3 °F /  11.3 °C 30.16in /  1021.2hPa Calm     81% 0.00in /  0mm 0 W/m2
03:19 58.1 °F /  14.5 °C 52.3 °F /  11.3 °C 30.16in /  1021.2hPa Calm     81% 0.00in /  0mm 0 W/m2
03:24 58.1 °F /  14.5 °C 52.7 °F /  11.5 °C 30.16in /  1021.2hPa Calm     82% 0.00in /  0mm 0 W/m2
03:29 58 °F /  14.4 °C 52.6 °F /  11.4 °C 30.16in /  1021.2hPa Calm     82% 0.00in /  0mm 0 W/m2
03:34 57.9 °F /  14.4 °C 52.5 °F /  11.4 °C 30.15in /  1020.9hPa Calm     82% 0.00in /  0mm 0 W/m2
03:39 57.9 °F /  14.4 °C 52.5 °F /  11.4 °C 30.15in /  1020.9hPa Calm     82% 0.00in /  0mm 0 W/m2
03:44 57.8 °F /  14.3 °C 52.6 °F /  11.4 °C 30.15in /  1020.9hPa Calm     82.6% 0.00in /  0mm 0 W/m2
03:49 57.7 °F /  14.3 °C 52.7 °F /  11.5 °C 30.15in /  1020.9hPa Calm     83% 0.00in /  0mm 0 W/m2
03:54 57.7 °F /  14.3 °C 52.7 °F /  11.5 °C 30.15in /  1020.9hPa Calm     83% 0.00in /  0mm 0 W/m2
03:59 57.7 °F /  14.3 °C 52.7 °F /  11.5 °C 30.15in /  1020.9hPa Calm     83.3% 0.00in /  0mm 0 W/m2
04:04 57.6 °F /  14.2 °C 52.7 °F /  11.5 °C 30.15in /  1020.9hPa Calm     84% 0.00in /  0mm 0 W/m2
04:09 57.6 °F /  14.2 °C 52.7 °F /  11.5 °C 30.15in /  1020.9hPa Calm     84% 0.00in /  0mm 0 W/m2
04:14 57.6 °F /  14.2 °C 52.7 °F /  11.5 °C 30.15in /  1020.9hPa Calm     84% 0.00in /  0mm 0 W/m2
04:19 57.6 °F /  14.2 °C 52.7 °F /  11.5 °C 30.15in /  1020.9hPa Calm     84% 0.00in /  0mm 0 W/m2
04:24 57.6 °F /  14.2 °C 52.7 °F /  11.5 °C 30.15in /  1020.9hPa Calm     84% 0.00in /  0mm 0 W/m2
04:29 57.4 °F /  14.1 °C 52.5 °F /  11.4 °C 30.15in /  1020.9hPa Calm     84% 0.00in /  0mm 0 W/m2
04:34 57.2 °F /  14 °C 52.3 °F /  11.3 °C 30.15in /  1020.9hPa Calm     84% 0.00in /  0mm 0 W/m2
04:39 57.2 °F /  14 °C 52.3 °F /  11.3 °C 30.15in /  1020.9hPa Calm     84% 0.00in /  0mm 0 W/m2
04:44 57.1 °F /  13.9 °C 52.5 °F /  11.4 °C 30.14in /  1020.5hPa Calm     84.6% 0.00in /  0mm 0 W/m2
04:49 57 °F /  13.9 °C 52.5 °F /  11.4 °C 30.15in /  1020.9hPa Calm     85% 0.00in /  0mm 0 W/m2
04:54 57 °F /  13.9 °C 52.5 °F /  11.4 °C 30.15in /  1020.9hPa Calm     85% 0.00in /  0mm 0 W/m2
04:59 56.9 °F /  13.8 °C 52.4 °F /  11.3 °C 30.14in /  1020.5hPa Calm     85% 0.00in /  0mm 0 W/m2
05:04 56.8 °F /  13.8 °C 52.3 °F /  11.3 °C 30.14in /  1020.5hPa Calm     85% 0.00in /  0mm 5 W/m2
05:09 56.8 °F /  13.8 °C 52.3 °F /  11.3 °C 30.14in /  1020.5hPa Calm     85% 0.00in /  0mm 7 W/m2
05:14 56.8 °F /  13.8 °C 52.3 °F /  11.3 °C 30.14in /  1020.5hPa Calm     85% 0.00in /  0mm 11 W/m2
05:19 56.7 °F /  13.7 °C 52.2 °F /  11.2 °C 30.14in /  1020.5hPa Calm     85.1% 0.00in /  0mm 12 W/m2
05:24 56.7 °F /  13.7 °C 52.5 °F /  11.4 °C 30.14in /  1020.5hPa Calm     86% 0.00in /  0mm 18 W/m2
05:29 56.7 °F /  13.7 °C 52.5 °F /  11.4 °C 30.14in /  1020.5hPa Calm     86% 0.00in /  0mm 21 W/m2
05:34 56.6 °F /  13.7 °C 52.4 °F /  11.3 °C 30.14in /  1020.5hPa Calm     86% 0.00in /  0mm 21 W/m2
05:39 56.5 °F /  13.6 °C 52.3 °F /  11.3 °C 30.14in /  1020.5hPa Calm     86% 0.00in /  0mm 25 W/m2
05:44 56.4 °F /  13.6 °C 52.3 °F /  11.3 °C 30.14in /  1020.5hPa Calm     86% 0.00in /  0mm 28 W/m2
05:49 56.5 °F /  13.6 °C 52.3 °F /  11.3 °C 30.14in /  1020.5hPa Calm     86% 0.00in /  0mm 32 W/m2
05:54 56.7 °F /  13.7 °C 52.5 °F /  11.4 °C 30.14in /  1020.5hPa Calm     86% 0.00in /  0mm 37 W/m2
05:59 56.7 °F /  13.7 °C 52.7 °F /  11.5 °C 30.14in /  1020.5hPa Calm     86.4% 0.00in /  0mm 44 W/m2
06:04 56.8 °F /  13.8 °C 53.1 °F /  11.7 °C 30.14in /  1020.5hPa Calm     87% 0.00in /  0mm 60 W/m2
06:09 56.9 °F /  13.8 °C 52.9 °F /  11.6 °C 30.14in /  1020.5hPa Calm     86.3% 0.00in /  0mm 72 W/m2
06:14 57.1 °F /  13.9 °C 53 °F /  11.7 °C 30.14in /  1020.5hPa Calm     86% 0.00in /  0mm 86 W/m2
06:19 57.2 °F /  14 °C 53.1 °F /  11.7 °C 30.14in /  1020.5hPa Calm     86% 0.00in /  0mm 98 W/m2
06:24 57.6 °F /  14.2 °C 53.4 °F /  11.9 °C 30.14in /  1020.5hPa Calm     86% 0.00in /  0mm 109 W/m2
06:29 57.7 °F /  14.3 °C 53.6 °F /  12 °C 30.14in /  1020.5hPa Calm     86% 0.00in /  0mm 116 W/m2
06:34 58 °F /  14.4 °C 53.9 °F /  12.2 °C 30.14in /  1020.5hPa Calm     86% 0.00in /  0mm 128 W/m2
06:39 58.4 °F /  14.7 °C 54 °F /  12.2 °C 30.14in /  1020.5hPa Calm     85.1% 0.00in /  0mm 151 W/m2
06:44 58.7 °F /  14.8 °C 54.2 °F /  12.3 °C 30.14in /  1020.5hPa Calm     85% 0.00in /  0mm 165 W/m2
06:49 59.3 °F /  15.2 °C 54.8 °F /  12.7 °C 30.14in /  1020.5hPa Calm     85% 0.00in /  0mm 171 W/m2
06:54 59.7 °F /  15.4 °C 54.8 °F /  12.7 °C 30.14in /  1020.5hPa West 1mph /  1.6km/h 3mph /  4.8km/h 83.8% 0.00in /  0mm 148 W/m2
06:59 59.8 °F /  15.4 °C 54.6 °F /  12.6 °C 30.14in /  1020.5hPa West 0.3mph /  0.5km/h 2mph /  3.2km/h 83% 0.00in /  0mm 118 W/m2
07:04 59.9 °F /  15.5 °C 54.4 °F /  12.4 °C 30.14in /  1020.5hPa West 0.2mph /  0.3km/h 2mph /  3.2km/h 82.3% 0.00in /  0mm 132 W/m2
07:09 59.9 °F /  15.5 °C 54.3 °F /  12.4 °C 30.14in /  1020.5hPa West 0.5mph /  0.8km/h 2mph /  3.2km/h 82% 0.00in /  0mm 149 W/m2
07:14 60.2 °F /  15.7 °C 54.7 °F /  12.6 °C 30.14in /  1020.5hPa Calm   2mph /  3.2km/h 82% 0.00in /  0mm 151 W/m2
07:19 60.5 °F /  15.8 °C 54.9 °F /  12.7 °C 30.14in /  1020.5hPa Calm   1mph /  1.6km/h 81.9% 0.00in /  0mm 149 W/m2
07:24 60.9 °F /  16.1 °C 55 °F /  12.8 °C 30.14in /  1020.5hPa West 0.1mph /  0.2km/h 1mph /  1.6km/h 81% 0.00in /  0mm 148 W/m2
07:29 61.3 °F /  16.3 °C 55 °F /  12.8 °C 30.14in /  1020.5hPa Calm   1mph /  1.6km/h 80.2% 0.00in /  0mm 155 W/m2
07:34 61.4 °F /  16.3 °C 54.9 °F /  12.7 °C 30.14in /  1020.5hPa Calm     79.1% 0.00in /  0mm 165 W/m2
07:39 61.5 °F /  16.4 °C 54.9 °F /  12.7 °C 30.14in /  1020.5hPa Calm     79% 0.00in /  0mm 179 W/m2
07:44 61.7 °F /  16.5 °C 54.9 °F /  12.7 °C 30.14in /  1020.5hPa Calm     78.3% 0.00in /  0mm 192 W/m2
07:49 62 °F /  16.7 °C 54.9 °F /  12.7 °C 30.13in /  1020.2hPa Calm     77.9% 0.00in /  0mm 227 W/m2
07:54 62.1 °F /  16.7 °C 54.7 °F /  12.6 °C 30.13in /  1020.2hPa Calm     77% 0.00in /  0mm 239 W/m2
07:59 62.2 °F /  16.8 °C 54.8 °F /  12.7 °C 30.14in /  1020.5hPa Calm     77% 0.00in /  0mm 213 W/m2
08:04 62.4 °F /  16.9 °C 54.9 °F /  12.7 °C 30.14in /  1020.5hPa West 0.2mph /  0.3km/h 1mph /  1.6km/h 76.5% 0.00in /  0mm 190 W/m2
08:09 62.7 °F /  17.1 °C 55 °F /  12.8 °C 30.14in /  1020.5hPa West 0.3mph /  0.5km/h 2mph /  3.2km/h 76% 0.00in /  0mm 192 W/m2
08:14 63 °F /  17.2 °C 54.9 °F /  12.7 °C 30.14in /  1020.5hPa West 0.2mph /  0.3km/h 2mph /  3.2km/h 75.1% 0.00in /  0mm 202 W/m2
08:19 63 °F /  17.2 °C 54.5 °F /  12.5 °C 30.14in /  1020.5hPa West 0.4mph /  0.6km/h 3mph /  4.8km/h 74.1% 0.00in /  0mm 209 W/m2
08:24 63 °F /  17.2 °C 54.5 °F /  12.5 °C 30.14in /  1020.5hPa Calm     74% 0.00in /  0mm 234 W/m2
08:29 63.8 °F /  17.7 °C 55.1 °F /  12.8 °C 30.13in /  1020.2hPa Calm     73.3% 0.00in /  0mm 257 W/m2
08:34 64.3 °F /  17.9 °C 54.9 °F /  12.7 °C 30.13in /  1020.2hPa Calm     71.5% 0.00in /  0mm 408 W/m2
08:39 64.4 °F /  18 °C 54.3 °F /  12.4 °C 30.13in /  1020.2hPa Calm     70% 0.00in /  0mm 246 W/m2
08:44 64.7 °F /  18.2 °C 54.4 °F /  12.4 °C 30.13in /  1020.2hPa Calm     69.6% 0.00in /  0mm 350 W/m2
08:49 65.1 °F /  18.4 °C 54.5 °F /  12.5 °C 30.13in /  1020.2hPa West 0.3mph /  0.5km/h 2mph /  3.2km/h 68.4% 0.00in /  0mm 675 W/m2
08:54 65.4 °F /  18.6 °C 54.3 °F /  12.4 °C 30.13in /  1020.2hPa West 0.1mph /  0.2km/h 2mph /  3.2km/h 67.3% 0.00in /  0mm 631 W/m2
08:59 65.7 °F /  18.7 °C 54.2 °F /  12.3 °C 30.12in /  1019.9hPa West 1.5mph /  2.4km/h 4mph /  6.4km/h 66.5% 0.00in /  0mm 343 W/m2
09:04 65.6 °F /  18.7 °C 54.3 °F /  12.4 °C 30.12in /  1019.9hPa West 0.1mph /  0.2km/h 3mph /  4.8km/h 66.9% 0.00in /  0mm 357 W/m2
09:09 66.4 °F /  19.1 °C 54.6 °F /  12.6 °C 30.12in /  1019.9hPa Calm   1mph /  1.6km/h 65.6% 0.00in /  0mm 339 W/m2
09:14 66.6 °F /  19.2 °C 54.1 °F /  12.3 °C 30.12in /  1019.9hPa Calm     64.1% 0.00in /  0mm 403 W/m2
09:19 67.4 °F /  19.7 °C 54.5 °F /  12.5 °C 30.12in /  1019.9hPa West 1.2mph /  1.9km/h 3mph /  4.8km/h 63.2% 0.00in /  0mm 396 W/m2
09:24 68.5 °F /  20.3 °C 56 °F /  13.3 °C 30.12in /  1019.9hPa West 0.2mph /  0.3km/h 2mph /  3.2km/h 64.3% 0.00in /  0mm 272 W/m2
09:29 68.6 °F /  20.3 °C 56 °F /  13.3 °C 30.12in /  1019.9hPa West 0.7mph /  1.1km/h 3mph /  4.8km/h 64% 0.00in /  0mm 592 W/m2
09:34 68.7 °F /  20.4 °C 55.8 °F /  13.2 °C 30.12in /  1019.9hPa West 0.1mph /  0.2km/h 1mph /  1.6km/h 63.3% 0.00in /  0mm 654 W/m2
09:39 67.9 °F /  19.9 °C 55.5 °F /  13.1 °C 30.12in /  1019.9hPa West 0.5mph /  0.8km/h 2mph /  3.2km/h 64.5% 0.00in /  0mm 752 W/m2
09:44 67.8 °F /  19.9 °C 55.2 °F /  12.9 °C 30.12in /  1019.9hPa West 0.3mph /  0.5km/h 3mph /  4.8km/h 64% 0.00in /  0mm 752 W/m2
09:49 68 °F /  20 °C 55.2 °F /  12.9 °C 30.12in /  1019.9hPa West 1.2mph /  1.9km/h 3mph /  4.8km/h 63.6% 0.00in /  0mm 434 W/m2
09:54 68.2 °F /  20.1 °C 55.3 °F /  12.9 °C 30.12in /  1019.9hPa West 0.4mph /  0.6km/h 2mph /  3.2km/h 63.3% 0.00in /  0mm 621 W/m2
09:59 68.6 °F /  20.3 °C 55.4 °F /  13 °C 30.12in /  1019.9hPa West 0.1mph /  0.2km/h 2mph /  3.2km/h 62.7% 0.00in /  0mm 599 W/m2
10:04 68.4 °F /  20.2 °C 55.4 °F /  13 °C 30.12in /  1019.9hPa West 0.3mph /  0.5km/h 2mph /  3.2km/h 63.2% 0.00in /  0mm 271 W/m2
10:09 68.5 °F /  20.3 °C 55.6 °F /  13.1 °C 30.12in /  1019.9hPa West 0.5mph /  0.8km/h 3mph /  4.8km/h 63.4% 0.00in /  0mm 759 W/m2
10:14 68.9 °F /  20.5 °C 55.8 °F /  13.2 °C 30.12in /  1019.9hPa West 0.3mph /  0.5km/h 2mph /  3.2km/h 62.9% 0.00in /  0mm 759 W/m2
10:19 69.3 °F /  20.7 °C 55.7 °F /  13.2 °C 30.12in /  1019.9hPa West 1.7mph /  2.7km/h 6mph /  9.7km/h 61.9% 0.00in /  0mm 761 W/m2
10:24 69.3 °F /  20.7 °C 56.2 °F /  13.4 °C 30.12in /  1019.9hPa West 2.6mph /  4.2km/h 6mph /  9.7km/h 63.2% 0.00in /  0mm 638 W/m2
10:29 69.7 °F /  20.9 °C 56.5 °F /  13.6 °C 30.11in /  1019.5hPa West 0.9mph /  1.4km/h 4mph /  6.4km/h 62.8% 0.00in /  0mm 763 W/m2
10:34 70.3 °F /  21.3 °C 56.4 °F /  13.6 °C 30.11in /  1019.5hPa West 2.9mph /  4.7km/h 6mph /  9.7km/h 61.3% 0.00in /  0mm 805 W/m2
10:39 70.9 °F /  21.6 °C 56.8 °F /  13.8 °C 30.11in /  1019.5hPa West 0.5mph /  0.8km/h 5mph /  8km/h 61.1% 0.00in /  0mm 842 W/m2
10:44 71.7 °F /  22.1 °C 56.7 °F /  13.7 °C 30.11in /  1019.5hPa West 2.4mph /  3.9km/h 6mph /  9.7km/h 59.3% 0.00in /  0mm 879 W/m2
10:49 71.1 °F /  21.7 °C 56.7 °F /  13.7 °C 30.11in /  1019.5hPa West 4mph /  6.4km/h 9mph /  14.5km/h 60.6% 0.00in /  0mm 751 W/m2
10:54 71.1 °F /  21.7 °C 57.3 °F /  14.1 °C 30.11in /  1019.5hPa West 3.6mph /  5.8km/h 9mph /  14.5km/h 61.8% 0.00in /  0mm 751 W/m2
10:59 71.1 °F /  21.7 °C 57.3 °F /  14.1 °C 30.11in /  1019.5hPa NW 3.5mph /  5.6km/h 8mph /  12.9km/h 61.6% 0.00in /  0mm 947 W/m2
11:04 71.1 °F /  21.7 °C 56.7 °F /  13.7 °C 30.11in /  1019.5hPa West 4mph /  6.4km/h 9mph /  14.5km/h 60.5% 0.00in /  0mm 970 W/m2
11:09 71.5 °F /  21.9 °C 56.5 °F /  13.6 °C 30.11in /  1019.5hPa West 4mph /  6.4km/h 9mph /  14.5km/h 59.1% 0.00in /  0mm 828 W/m2
11:14 71.3 °F /  21.8 °C 56.3 °F /  13.5 °C 30.11in /  1019.5hPa WNW 4.2mph /  6.8km/h 9mph /  14.5km/h 59.2% 0.00in /  0mm 693 W/m2
11:19 70.3 °F /  21.3 °C 56.4 °F /  13.6 °C 30.11in /  1019.5hPa WNW 3.7mph /  6km/h 8mph /  12.9km/h 61.1% 0.00in /  0mm 352 W/m2
11:24 70.1 °F /  21.2 °C 56.4 °F /  13.6 °C 30.11in /  1019.5hPa WNW 3mph /  4.8km/h 6mph /  9.7km/h 61.9% 0.00in /  0mm 418 W/m2
11:29 70.3 °F /  21.3 °C 56.3 °F /  13.5 °C 30.11in /  1019.5hPa WNW 3.2mph /  5.1km/h 6mph /  9.7km/h 61.1% 0.00in /  0mm 418 W/m2
11:34 70.3 °F /  21.3 °C 55.8 °F /  13.2 °C 30.11in /  1019.5hPa WNW 2.5mph /  4km/h 7mph /  11.3km/h 60.2% 0.00in /  0mm 396 W/m2
11:39 69.9 °F /  21.1 °C 56.1 °F /  13.4 °C 30.11in /  1019.5hPa NW 3.6mph /  5.8km/h 8mph /  12.9km/h 61.9% 0.00in /  0mm 396 W/m2
11:44 70 °F /  21.1 °C 56.1 °F /  13.4 °C 30.11in /  1019.5hPa NW 2.3mph /  3.7km/h 6mph /  9.7km/h 61.4% 0.00in /  0mm 399 W/m2
11:49 70.1 °F /  21.2 °C 56.2 °F /  13.4 °C 30.11in /  1019.5hPa WNW 1.7mph /  2.7km/h 6mph /  9.7km/h 61.3% 0.00in /  0mm 318 W/m2
11:54 70.4 °F /  21.3 °C 56.5 °F /  13.6 °C 30.11in /  1019.5hPa WNW 3.3mph /  5.3km/h 7mph /  11.3km/h 61.2% 0.00in /  0mm 260 W/m2
11:59 70.3 °F /  21.3 °C 56.3 °F /  13.5 °C 30.11in /  1019.5hPa WNW 2.7mph /  4.3km/h 5mph /  8km/h 61% 0.00in /  0mm 345 W/m2
12:04 70.9 °F /  21.6 °C 56.8 °F /  13.8 °C 30.11in /  1019.5hPa WNW 3.1mph /  5km/h 6mph /  9.7km/h 61.1% 0.00in /  0mm 909 W/m2
12:09 70.8 °F /  21.6 °C 56.7 °F /  13.7 °C 30.11in /  1019.5hPa WNW 3mph /  4.8km/h 7mph /  11.3km/h 60.8% 0.00in /  0mm 540 W/m2
12:14 70.7 °F /  21.5 °C 56.2 °F /  13.4 °C 30.11in /  1019.5hPa WNW 3.9mph /  6.3km/h 8mph /  12.9km/h 60.2% 0.00in /  0mm 431 W/m2
12:19 70.5 °F /  21.4 °C 55.9 °F /  13.3 °C 30.11in /  1019.5hPa WNW 2.9mph /  4.7km/h 8mph /  12.9km/h 59.8% 0.00in /  0mm 524 W/m2
12:24 70.8 °F /  21.6 °C 55.9 °F /  13.3 °C 30.11in /  1019.5hPa WNW 2.9mph /  4.7km/h 6mph /  9.7km/h 59.3% 0.00in /  0mm 510 W/m2
12:29 71.1 °F /  21.7 °C 56.1 °F /  13.4 °C 30.11in /  1019.5hPa WNW 1.2mph /  1.9km/h 6mph /  9.7km/h 59.2% 0.00in /  0mm 490 W/m2
12:34 71.2 °F /  21.8 °C 56.7 °F /  13.7 °C 30.10in /  1019.2hPa WNW 5mph /  8km/h 8mph /  12.9km/h 60.3% 0.00in /  0mm 663 W/m2
12:39 71.2 °F /  21.8 °C 56.4 °F /  13.6 °C 30.10in /  1019.2hPa WNW 3.6mph /  5.8km/h 7mph /  11.3km/h 59.6% 0.00in /  0mm 496 W/m2
12:44 71.2 °F /  21.8 °C 56.4 °F /  13.6 °C 30.10in /  1019.2hPa WNW 2mph /  3.2km/h 7mph /  11.3km/h 59.6% 0.00in /  0mm 431 W/m2
12:49 71.4 °F /  21.9 °C 56.2 °F /  13.4 °C 30.10in /  1019.2hPa West 2mph /  3.2km/h 7mph /  11.3km/h 58.8% 0.00in /  0mm 431 W/m2
12:54 72 °F /  22.2 °C 56.6 °F /  13.7 °C 30.10in /  1019.2hPa WNW 1mph /  1.6km/h 4mph /  6.4km/h 58.4% 0.00in /  0mm 564 W/m2
12:59 72.2 °F /  22.3 °C 56.4 °F /  13.6 °C 30.10in /  1019.2hPa West 3mph /  4.8km/h 6mph /  9.7km/h 57.5% 0.00in /  0mm 731 W/m2
13:04 72.3 °F /  22.4 °C 55.9 °F /  13.3 °C 30.10in /  1019.2hPa West 5.5mph /  8.9km/h 9mph /  14.5km/h 56.3% 0.00in /  0mm 731 W/m2
13:09 71.9 °F /  22.2 °C 56 °F /  13.3 °C 30.10in /  1019.2hPa West 2.6mph /  4.2km/h 7mph /  11.3km/h 57.3% 0.00in /  0mm 659 W/m2
13:14 72.6 °F /  22.6 °C 55.6 °F /  13.1 °C 30.10in /  1019.2hPa West 2.6mph /  4.2km/h 7mph /  11.3km/h 55.2% 0.00in /  0mm 721 W/m2
13:19 73.1 °F /  22.8 °C 55.9 °F /  13.3 °C 30.10in /  1019.2hPa WSW 3.8mph /  6.1km/h 8mph /  12.9km/h 54.9% 0.00in /  0mm 1183 W/m2
13:24 73.1 °F /  22.8 °C 56.4 °F /  13.6 °C 30.10in /  1019.2hPa WSW 2.8mph /  4.5km/h 8mph /  12.9km/h 55.9% 0.00in /  0mm 874 W/m2
13:29 72.8 °F /  22.7 °C 57.5 °F /  14.2 °C 30.09in /  1018.8hPa West 3.8mph /  6.1km/h 8mph /  12.9km/h 58.7% 0.00in /  0mm 582 W/m2
13:34 72.6 °F /  22.6 °C 57.6 °F /  14.2 °C 30.09in /  1018.8hPa West 2.9mph /  4.7km/h 8mph /  12.9km/h 59.1% 0.00in /  0mm 529 W/m2
13:39 72.6 °F /  22.6 °C 57.3 °F /  14.1 °C 30.09in /  1018.8hPa West 1.8mph /  2.9km/h 5mph /  8km/h 58.8% 0.00in /  0mm 606 W/m2
13:44 73 °F /  22.8 °C 56.4 °F /  13.6 °C 30.09in /  1018.8hPa WNW 6.1mph /  9.8km/h 10mph /  16.1km/h 55.9% 0.00in /  0mm 881 W/m2
13:49 73.5 °F /  23.1 °C 56.3 °F /  13.5 °C 30.09in /  1018.8hPa WNW 2.2mph /  3.5km/h 8mph /  12.9km/h 54.7% 0.00in /  0mm 795 W/m2
13:54 73.9 °F /  23.3 °C 54.2 °F /  12.3 °C 30.09in /  1018.8hPa West 4.2mph /  6.8km/h 7mph /  11.3km/h 50.3% 0.00in /  0mm 947 W/m2
13:59 74 °F /  23.3 °C 54.2 °F /  12.3 °C 30.09in /  1018.8hPa WNW 3.1mph /  5km/h 8mph /  12.9km/h 49.9% 0.00in /  0mm 687 W/m2
14:04 73.9 °F /  23.3 °C 54.2 °F /  12.3 °C 30.08in /  1018.5hPa West 6.5mph /  10.5km/h 11mph /  17.7km/h 50.1% 0.00in /  0mm 563 W/m2
14:09 73.1 °F /  22.8 °C 52.7 °F /  11.5 °C 30.08in /  1018.5hPa West 4.3mph /  6.9km/h 11mph /  17.7km/h 48.9% 0.00in /  0mm 388 W/m2
14:14 72.8 °F /  22.7 °C 51.1 °F /  10.6 °C 30.08in /  1018.5hPa West 6.6mph /  10.6km/h 9mph /  14.5km/h 46.5% 0.00in /  0mm 476 W/m2
14:19 72.7 °F /  22.6 °C 52.5 °F /  11.4 °C 30.08in /  1018.5hPa West 5.8mph /  9.3km/h 10mph /  16.1km/h 49.3% 0.00in /  0mm 573 W/m2
14:24 73.4 °F /  23 °C 53.7 °F /  12.1 °C 30.08in /  1018.5hPa West 4.7mph /  7.6km/h 10mph /  16.1km/h 50.3% 0.00in /  0mm 668 W/m2
14:29 73.9 °F /  23.3 °C 53.8 °F /  12.1 °C 30.08in /  1018.5hPa West 4.4mph /  7.1km/h 10mph /  16.1km/h 49.6% 0.00in /  0mm 517 W/m2
14:34 73.8 °F /  23.2 °C 54.5 °F /  12.5 °C 30.08in /  1018.5hPa West 3.6mph /  5.8km/h 9mph /  14.5km/h 50.9% 0.00in /  0mm 392 W/m2
14:39 73.7 °F /  23.2 °C 54.3 °F /  12.4 °C 30.08in /  1018.5hPa WNW 5mph /  8km/h 9mph /  14.5km/h 50.8% 0.00in /  0mm 469 W/m2
14:44 73 °F /  22.8 °C 55.5 °F /  13.1 °C 30.08in /  1018.5hPa West 4.5mph /  7.2km/h 9mph /  14.5km/h 54.3% 0.00in /  0mm 501 W/m2
14:49 73.1 °F /  22.8 °C 56.8 °F /  13.8 °C 30.08in /  1018.5hPa WNW 5.1mph /  8.2km/h 9mph /  14.5km/h 56.5% 0.00in /  0mm 443 W/m2
14:54 73 °F /  22.8 °C 57.2 °F /  14 °C 30.07in /  1018.2hPa NW 6.3mph /  10.1km/h 11mph /  17.7km/h 57.7% 0.00in /  0mm 766 W/m2
14:59 73.2 °F /  22.9 °C 57.1 °F /  13.9 °C 30.07in /  1018.2hPa WNW 3.8mph /  6.1km/h 9mph /  14.5km/h 57.2% 0.00in /  0mm 766 W/m2
15:04 73 °F /  22.8 °C 56.2 °F /  13.4 °C 30.07in /  1018.2hPa WNW 5.9mph /  9.5km/h 10mph /  16.1km/h 55.5% 0.00in /  0mm 601 W/m2
15:09 73.3 °F /  22.9 °C 55.4 °F /  13 °C 30.07in /  1018.2hPa WNW 6mph /  9.7km/h 12mph /  19.3km/h 53.6% 0.00in /  0mm 457 W/m2
15:14 72.7 °F /  22.6 °C 54.1 °F /  12.3 °C 30.07in /  1018.2hPa West 6.5mph /  10.5km/h 12mph /  19.3km/h 52.1% 0.00in /  0mm 492 W/m2
15:19 72.6 °F /  22.6 °C 53.2 °F /  11.8 °C 30.07in /  1018.2hPa West 5.4mph /  8.7km/h 10mph /  16.1km/h 50.6% 0.00in /  0mm 492 W/m2
15:24 72.7 °F /  22.6 °C 54.3 °F /  12.4 °C 30.07in /  1018.2hPa WSW 6.7mph /  10.8km/h 11mph /  17.7km/h 52.7% 0.00in /  0mm 496 W/m2
15:29 72.9 °F /  22.7 °C 53.5 °F /  11.9 °C 30.06in /  1017.8hPa WSW 5.7mph /  9.2km/h 11mph /  17.7km/h 50.7% 0.00in /  0mm 438 W/m2
15:34 72.9 °F /  22.7 °C 49.4 °F /  9.7 °C 30.06in /  1017.8hPa West 6.8mph /  10.9km/h 11mph /  17.7km/h 43.9% 0.00in /  0mm 548 W/m2
15:39 72.5 °F /  22.5 °C 46.9 °F /  8.3 °C 30.06in /  1017.8hPa West 6.4mph /  10.3km/h 11mph /  17.7km/h 40.1% 0.00in /  0mm 510 W/m2
15:44 73.2 °F /  22.9 °C 48.8 °F /  9.3 °C 30.06in /  1017.8hPa WSW 6.1mph /  9.8km/h 11mph /  17.7km/h 42% 0.00in /  0mm 1056 W/m2
15:49 73.9 °F /  23.3 °C 47.5 °F /  8.6 °C 30.06in /  1017.8hPa West 6mph /  9.7km/h 11mph /  17.7km/h 39.1% 0.00in /  0mm 1056 W/m2
15:54 74.2 °F /  23.4 °C 49.7 °F /  9.8 °C 30.06in /  1017.8hPa West 5.5mph /  8.9km/h 10mph /  16.1km/h 42% 0.00in /  0mm 874 W/m2
15:59 74.7 °F /  23.7 °C 50.8 °F /  10.4 °C 30.06in /  1017.8hPa WSW 4.9mph /  7.9km/h 9mph /  14.5km/h 43.2% 0.00in /  0mm 842 W/m2
16:04 75.1 °F /  23.9 °C 49.2 °F /  9.6 °C 30.05in /  1017.5hPa WSW 7.2mph /  11.6km/h 11mph /  17.7km/h 40.1% 0.00in /  0mm 842 W/m2
16:09 74.8 °F /  23.8 °C 49.5 °F /  9.7 °C 30.05in /  1017.5hPa West 5.3mph /  8.5km/h 11mph /  17.7km/h 41% 0.00in /  0mm 540 W/m2
16:14 74.8 °F /  23.8 °C 50.1 °F /  10.1 °C 30.05in /  1017.5hPa WSW 6.2mph /  10km/h 11mph /  17.7km/h 42% 0.00in /  0mm 522 W/m2
16:19 74.7 °F /  23.7 °C 50.3 °F /  10.2 °C 30.05in /  1017.5hPa WSW 5.7mph /  9.2km/h 11mph /  17.7km/h 42.4% 0.00in /  0mm 443 W/m2
16:24 74.6 °F /  23.7 °C 50.3 °F /  10.2 °C 30.05in /  1017.5hPa West 6.5mph /  10.5km/h 12mph /  19.3km/h 42.7% 0.00in /  0mm 450 W/m2
16:29 74.2 °F /  23.4 °C 50.8 °F /  10.4 °C 30.05in /  1017.5hPa West 7.2mph /  11.6km/h 13mph /  20.9km/h 43.9% 0.00in /  0mm 469 W/m2
16:34 73.8 °F /  23.2 °C 51.7 °F /  10.9 °C 30.05in /  1017.5hPa West 7.5mph /  12.1km/h 13mph /  20.9km/h 46% 0.00in /  0mm 469 W/m2
16:39 74 °F /  23.3 °C 51.6 °F /  10.9 °C 30.05in /  1017.5hPa WNW 4.9mph /  7.9km/h 10mph /  16.1km/h 45.5% 0.00in /  0mm 478 W/m2
16:44 74 °F /  23.3 °C 48.8 °F /  9.3 °C 30.04in /  1017.2hPa WNW 6.9mph /  11.1km/h 11mph /  17.7km/h 40.9% 0.00in /  0mm 339 W/m2
16:49 73.5 °F /  23.1 °C 48.2 °F /  9 °C 30.04in /  1017.2hPa WNW 6.6mph /  10.6km/h 11mph /  17.7km/h 40.9% 0.00in /  0mm 262 W/m2
16:54 73 °F /  22.8 °C 47.9 °F /  8.8 °C 30.04in /  1017.2hPa WNW 7mph /  11.3km/h 11mph /  17.7km/h 41% 0.00in /  0mm 262 W/m2
16:59 72.4 °F /  22.4 °C 45.1 °F /  7.3 °C 30.04in /  1017.2hPa WNW 6.5mph /  10.5km/h 12mph /  19.3km/h 37.5% 0.00in /  0mm 283 W/m2
17:04 72.3 °F /  22.4 °C 42.7 °F /  5.9 °C 30.04in /  1017.2hPa WNW 6.5mph /  10.5km/h 11mph /  17.7km/h 34.4% 0.00in /  0mm 290 W/m2
17:09 72.4 °F /  22.4 °C 43.9 °F /  6.6 °C 30.04in /  1017.2hPa WNW 2.8mph /  4.5km/h 10mph /  16.1km/h 35.9% 0.00in /  0mm 295 W/m2
17:14 72.5 °F /  22.5 °C 45 °F /  7.2 °C 30.03in /  1016.8hPa WNW 6mph /  9.7km/h 9mph /  14.5km/h 37.3% 0.00in /  0mm 297 W/m2
17:19 72.4 °F /  22.4 °C 45.7 °F /  7.6 °C 30.03in /  1016.8hPa West 4.4mph /  7.1km/h 9mph /  14.5km/h 38.6% 0.00in /  0mm 278 W/m2
17:24 72.5 °F /  22.5 °C 47 °F /  8.3 °C 30.03in /  1016.8hPa NW 1.9mph /  3.1km/h 9mph /  14.5km/h 40.3% 0.00in /  0mm 288 W/m2
17:29 72.5 °F /  22.5 °C 47.6 °F /  8.7 °C 30.03in /  1016.8hPa WNW 4mph /  6.4km/h 9mph /  14.5km/h 41.4% 0.00in /  0mm 288 W/m2
17:34 72.3 °F /  22.4 °C 47.6 °F /  8.7 °C 30.03in /  1016.8hPa West 3.5mph /  5.6km/h 8mph /  12.9km/h 41.5% 0.00in /  0mm 253 W/m2
17:39 72.2 °F /  22.3 °C 45.4 °F /  7.4 °C 30.03in /  1016.8hPa West 5.1mph /  8.2km/h 11mph /  17.7km/h 38.4% 0.00in /  0mm 227 W/m2
17:44 72.2 °F /  22.3 °C 46.3 °F /  7.9 °C 30.03in /  1016.8hPa WNW 4.1mph /  6.6km/h 8mph /  12.9km/h 39.7% 0.00in /  0mm 213 W/m2
17:49 71.8 °F /  22.1 °C 47.2 °F /  8.4 °C 30.03in /  1016.8hPa WNW 5.2mph /  8.4km/h 9mph /  14.5km/h 41.7% 0.00in /  0mm 202 W/m2
17:54 71.5 °F /  21.9 °C 48.2 °F /  9 °C 30.03in /  1016.8hPa WNW 4.9mph /  7.9km/h 8mph /  12.9km/h 43.6% 0.00in /  0mm 190 W/m2
17:59 71.3 °F /  21.8 °C 48.8 °F /  9.3 °C 30.03in /  1016.8hPa West 3.9mph /  6.3km/h 8mph /  12.9km/h 44.9% 0.00in /  0mm 183 W/m2
18:04 71.4 °F /  21.9 °C 49.5 °F /  9.7 °C 30.03in /  1016.8hPa West 3.6mph /  5.8km/h 8mph /  12.9km/h 45.8% 0.00in /  0mm 179 W/m2
18:09 71.4 °F /  21.9 °C 49.6 °F /  9.8 °C 30.03in /  1016.8hPa West 3.1mph /  5km/h 7mph /  11.3km/h 46% 0.00in /  0mm 174 W/m2
18:14 71.4 °F /  21.9 °C 49.6 °F /  9.8 °C 30.03in /  1016.8hPa West 3.5mph /  5.6km/h 7mph /  11.3km/h 46% 0.00in /  0mm 171 W/m2
18:19 71.2 °F /  21.8 °C 48.4 °F /  9.1 °C 30.03in /  1016.8hPa WNW 5.1mph /  8.2km/h 8mph /  12.9km/h 44.3% 0.00in /  0mm 167 W/m2
18:24 71.1 °F /  21.7 °C 48 °F /  8.9 °C 30.02in /  1016.5hPa WNW 5mph /  8km/h 11mph /  17.7km/h 44% 0.00in /  0mm 162 W/m2
18:29 70.7 °F /  21.5 °C 44.5 °F /  6.9 °C 30.03in /  1016.8hPa West 6.5mph /  10.5km/h 12mph /  19.3km/h 38.9% 0.00in /  0mm 162 W/m2
18:34 70.3 °F /  21.3 °C 41.5 °F /  5.3 °C 30.03in /  1016.8hPa WNW 6.3mph /  10.1km/h 12mph /  19.3km/h 35.2% 0.00in /  0mm 151 W/m2
18:39 69.9 °F /  21.1 °C 42.3 °F /  5.7 °C 30.02in /  1016.5hPa West 4.7mph /  7.6km/h 12mph /  19.3km/h 36.8% 0.00in /  0mm 151 W/m2
18:44 69.8 °F /  21 °C 42.6 °F /  5.9 °C 30.02in /  1016.5hPa WNW 4.3mph /  6.9km/h 12mph /  19.3km/h 37.4% 0.00in /  0mm 151 W/m2
18:49 69.7 °F /  20.9 °C 42.7 °F /  5.9 °C 30.02in /  1016.5hPa WNW 4.2mph /  6.8km/h 10mph /  16.1km/h 37.6% 0.00in /  0mm 149 W/m2
18:54 69.5 °F /  20.8 °C 43.5 °F /  6.4 °C 30.02in /  1016.5hPa WNW 5.3mph /  8.5km/h 10mph /  16.1km/h 39.2% 0.00in /  0mm 151 W/m2
18:59 69 °F /  20.6 °C 44.1 °F /  6.7 °C 30.02in /  1016.5hPa WNW 6.5mph /  10.5km/h 10mph /  16.1km/h 40.8% 0.00in /  0mm 151 W/m2
19:04 68.6 °F /  20.3 °C 44.9 °F /  7.2 °C 30.02in /  1016.5hPa West 6.8mph /  10.9km/h 11mph /  17.7km/h 42.4% 0.00in /  0mm 149 W/m2
19:09 68.3 °F /  20.2 °C 45.8 °F /  7.7 °C 30.02in /  1016.5hPa West 6.1mph /  9.8km/h 11mph /  17.7km/h 44.5% 0.00in /  0mm 146 W/m2
19:14 68 °F /  20 °C 46.6 °F /  8.1 °C 30.01in /  1016.1hPa West 4.2mph /  6.8km/h 10mph /  16.1km/h 46.5% 0.00in /  0mm 141 W/m2
19:19 68 °F /  20 °C 47.6 °F /  8.7 °C 30.01in /  1016.1hPa West 5.2mph /  8.4km/h 9mph /  14.5km/h 48% 0.00in /  0mm 195 W/m2
19:24 68 °F /  20 °C 48.2 °F /  9 °C 30.01in /  1016.1hPa West 2.8mph /  4.5km/h 7mph /  11.3km/h 49% 0.00in /  0mm 176 W/m2
19:29 68 °F /  20 °C 48.4 °F /  9.1 °C 30.01in /  1016.1hPa West 6.3mph /  10.1km/h 11mph /  17.7km/h 49.3% 0.00in /  0mm 190 W/m2
19:34 68 °F /  20 °C 48.6 °F /  9.2 °C 30.01in /  1016.1hPa West 4.9mph /  7.9km/h 11mph /  17.7km/h 49.8% 0.00in /  0mm 216 W/m2
19:39 67.8 °F /  19.9 °C 48.6 °F /  9.2 °C 30.01in /  1016.1hPa West 3.8mph /  6.1km/h 8mph /  12.9km/h 50.1% 0.00in /  0mm 128 W/m2
19:44 67.6 °F /  19.8 °C 49.4 °F /  9.7 °C 30.01in /  1016.1hPa West 4.1mph /  6.6km/h 7mph /  11.3km/h 52% 0.00in /  0mm 139 W/m2
19:49 67.3 °F /  19.6 °C 50.4 °F /  10.2 °C 30.01in /  1016.1hPa West 5.4mph /  8.7km/h 9mph /  14.5km/h 54.6% 0.00in /  0mm 134 W/m2
19:54 66.9 °F /  19.4 °C 51.3 °F /  10.7 °C 30.01in /  1016.1hPa WNW 3.8mph /  6.1km/h 8mph /  12.9km/h 57.1% 0.00in /  0mm 81 W/m2
19:59 66.6 °F /  19.2 °C 51.8 °F /  11 °C 30.01in /  1016.1hPa West 4.3mph /  6.9km/h 10mph /  16.1km/h 59% 0.00in /  0mm 116 W/m2
20:04 66.6 °F /  19.2 °C 52.2 °F /  11.2 °C 30.01in /  1016.1hPa West 2.8mph /  4.5km/h 6mph /  9.7km/h 60% 0.00in /  0mm 116 W/m2
20:09 66.4 °F /  19.1 °C 52.4 °F /  11.3 °C 30.01in /  1016.1hPa WNW 2.4mph /  3.9km/h 6mph /  9.7km/h 60.8% 0.00in /  0mm 72 W/m2
20:14 66.3 °F /  19.1 °C 52.9 °F /  11.6 °C 30.00in /  1015.8hPa WNW 4.2mph /  6.8km/h 8mph /  12.9km/h 62% 0.00in /  0mm 53 W/m2
20:19 65.9 °F /  18.8 °C 53.1 °F /  11.7 °C 30.00in /  1015.8hPa WNW 3.2mph /  5.1km/h 8mph /  12.9km/h 63.4% 0.00in /  0mm 37 W/m2
20:24 65.7 °F /  18.7 °C 53.4 °F /  11.9 °C 30.00in /  1015.8hPa WNW 4.5mph /  7.2km/h 9mph /  14.5km/h 64.5% 0.00in /  0mm 65 W/m2
20:29 65.8 °F /  18.8 °C 53.7 °F /  12.1 °C 30.00in /  1015.8hPa WNW 2.4mph /  3.9km/h 6mph /  9.7km/h 65% 0.00in /  0mm 62 W/m2
20:34 65.9 °F /  18.8 °C 53.9 °F /  12.2 °C 30.00in /  1015.8hPa WNW 2.8mph /  4.5km/h 6mph /  9.7km/h 65% 0.00in /  0mm 60 W/m2
20:39 66 °F /  18.9 °C 54 °F /  12.2 °C 30.00in /  1015.8hPa WNW 2.8mph /  4.5km/h 7mph /  11.3km/h 65% 0.00in /  0mm 46 W/m2
20:44 65.9 °F /  18.8 °C 54 °F /  12.2 °C 30.00in /  1015.8hPa West 3.2mph /  5.1km/h 7mph /  11.3km/h 65.4% 0.00in /  0mm 32 W/m2
20:49 65.8 °F /  18.8 °C 54.1 °F /  12.3 °C 30.00in /  1015.8hPa West 2.6mph /  4.2km/h 6mph /  9.7km/h 66% 0.00in /  0mm 28 W/m2
20:54 65.6 °F /  18.7 °C 54 °F /  12.2 °C 30.00in /  1015.8hPa West 2.2mph /  3.5km/h 5mph /  8km/h 66.2% 0.00in /  0mm 21 W/m2
20:59 65 °F /  18.3 °C 53.9 °F /  12.2 °C 30.00in /  1015.8hPa West 3.5mph /  5.6km/h 6mph /  9.7km/h 67% 0.00in /  0mm 16 W/m2
21:04 64.7 °F /  18.2 °C 53.9 °F /  12.2 °C 30.01in /  1016.1hPa West 1.5mph /  2.4km/h 6mph /  9.7km/h 68% 0.00in /  0mm 14 W/m2
21:09 64.4 °F /  18 °C 53.6 °F /  12 °C 30.01in /  1016.1hPa West 1.7mph /  2.7km/h 4mph /  6.4km/h 68.1% 0.00in /  0mm 12 W/m2
21:14 64.1 °F /  17.8 °C 53.7 °F /  12.1 °C 30.01in /  1016.1hPa West 1.7mph /  2.7km/h 4mph /  6.4km/h 69% 0.00in /  0mm 11 W/m2
21:19 63.9 °F /  17.7 °C 53.8 °F /  12.1 °C 30.00in /  1015.8hPa West 1.5mph /  2.4km/h 4mph /  6.4km/h 69.5% 0.00in /  0mm 9 W/m2
21:24 63.6 °F /  17.6 °C 53.7 °F /  12.1 °C 30.00in /  1015.8hPa West 0.7mph /  1.1km/h 4mph /  6.4km/h 70% 0.00in /  0mm 7 W/m2
21:29 63.4 °F /  17.4 °C 53.5 °F /  11.9 °C 30.01in /  1016.1hPa West 0.9mph /  1.4km/h 3mph /  4.8km/h 70% 0.00in /  0mm 5 W/m2
21:34 63.2 °F /  17.3 °C 53.7 °F /  12.1 °C 30.01in /  1016.1hPa West 2.1mph /  3.4km/h 5mph /  8km/h 70.8% 0.00in /  0mm 5 W/m2
21:39 63.1 °F /  17.3 °C 53.5 °F /  11.9 °C 30.01in /  1016.1hPa West 1.9mph /  3.1km/h 5mph /  8km/h 71% 0.00in /  0mm 0 W/m2
21:44 62.9 °F /  17.2 °C 53.3 °F /  11.8 °C 30.01in /  1016.1hPa West 2.4mph /  3.9km/h 6mph /  9.7km/h 71% 0.00in /  0mm 0 W/m2
21:49 62.6 °F /  17 °C 53.4 °F /  11.9 °C 30.01in /  1016.1hPa West 1.3mph /  2.1km/h 6mph /  9.7km/h 72% 0.00in /  0mm 0 W/m2
21:54 62.5 °F /  16.9 °C 53.3 °F /  11.8 °C 30.01in /  1016.1hPa West 2mph /  3.2km/h 5mph /  8km/h 72% 0.00in /  0mm 0 W/m2
21:59 62.4 °F /  16.9 °C 53.2 °F /  11.8 °C 30.01in /  1016.1hPa West 1.6mph /  2.6km/h 5mph /  8km/h 72% 0.00in /  0mm 0 W/m2
22:04 62.2 °F /  16.8 °C 53.2 °F /  11.8 °C 30.01in /  1016.1hPa West 1.1mph /  1.8km/h 4mph /  6.4km/h 72.5% 0.00in /  0mm 0 W/m2
22:09 62.1 °F /  16.7 °C 53.2 °F /  11.8 °C 30.01in /  1016.1hPa West 1mph /  1.6km/h 3mph /  4.8km/h 73% 0.00in /  0mm 0 W/m2
22:14 62.1 °F /  16.7 °C 53.2 °F /  11.8 °C 30.01in /  1016.1hPa West 0.4mph /  0.6km/h 2mph /  3.2km/h 73% 0.00in /  0mm 0 W/m2
22:19 62 °F /  16.7 °C 53.2 °F /  11.8 °C 30.01in /  1016.1hPa Calm   1mph /  1.6km/h 73% 0.00in /  0mm 0 W/m2
22:24 61.9 °F /  16.6 °C 53.1 °F /  11.7 °C 30.01in /  1016.1hPa Calm   2mph /  3.2km/h 73% 0.00in /  0mm 0 W/m2
22:29 61.8 °F /  16.6 °C 53.1 °F /  11.7 °C 30.01in /  1016.1hPa West 1.3mph /  2.1km/h 4mph /  6.4km/h 73.6% 0.00in /  0mm 0 W/m2
22:34 61.7 °F /  16.5 °C 53.2 °F /  11.8 °C 30.00in /  1015.8hPa West 1.6mph /  2.6km/h 4mph /  6.4km/h 74% 0.00in /  0mm 0 W/m2
22:39 61.6 °F /  16.4 °C 53.2 °F /  11.8 °C 30.00in /  1015.8hPa West 1mph /  1.6km/h 4mph /  6.4km/h 74% 0.00in /  0mm 0 W/m2
22:44 61.5 °F /  16.4 °C 53.2 °F /  11.8 °C 30.00in /  1015.8hPa West 0.9mph /  1.4km/h 3mph /  4.8km/h 74% 0.00in /  0mm 0 W/m2
22:49 61.3 °F /  16.3 °C 53.1 °F /  11.7 °C 30.00in /  1015.8hPa West 0.5mph /  0.8km/h 3mph /  4.8km/h 74% 0.00in /  0mm 0 W/m2
22:54 61.3 °F /  16.3 °C 53 °F /  11.7 °C 30.00in /  1015.8hPa West 2mph /  3.2km/h 5mph /  8km/h 74% 0.00in /  0mm 0 W/m2
22:59 61.2 °F /  16.2 °C 52.9 °F /  11.6 °C 30.00in /  1015.8hPa West 1.6mph /  2.6km/h 4mph /  6.4km/h 74% 0.00in /  0mm 0 W/m2
23:04 61.1 °F /  16.2 °C 52.8 °F /  11.6 °C 30.00in /  1015.8hPa West 0.2mph /  0.3km/h 2mph /  3.2km/h 74% 0.00in /  0mm 0 W/m2
23:09 60.8 °F /  16 °C 52.9 °F /  11.6 °C 30.00in /  1015.8hPa West 0.8mph /  1.3km/h 3mph /  4.8km/h 74.9% 0.00in /  0mm 0 W/m2
23:14 60.8 °F /  16 °C 52.9 °F /  11.6 °C 30.00in /  1015.8hPa West 0.1mph /  0.2km/h 2mph /  3.2km/h 75% 0.00in /  0mm 0 W/m2
23:19 60.6 °F /  15.9 °C 52.7 °F /  11.5 °C 30.00in /  1015.8hPa West 0.5mph /  0.8km/h 2mph /  3.2km/h 75% 0.00in /  0mm 0 W/m2
23:24 60.5 °F /  15.8 °C 52.6 °F /  11.4 °C 30.00in /  1015.8hPa Calm   1mph /  1.6km/h 75% 0.00in /  0mm 0 W/m2
23:29 60.4 °F /  15.8 °C 52.5 °F /  11.4 °C 30.00in /  1015.8hPa Calm   1mph /  1.6km/h 75% 0.00in /  0mm 0 W/m2
23:34 60.4 °F /  15.8 °C 52.5 °F /  11.4 °C 30.00in /  1015.8hPa West 0.4mph /  0.6km/h 2mph /  3.2km/h 75% 0.00in /  0mm 0 W/m2
23:39 60.2 °F /  15.7 °C 52.3 °F /  11.3 °C 30.00in /  1015.8hPa West 0.6mph /  1km/h 3mph /  4.8km/h 75.3% 0.00in /  0mm 0 W/m2
23:44 59.9 °F /  15.5 °C 52.3 °F /  11.3 °C 30.00in /  1015.8hPa West 0.3mph /  0.5km/h 2mph /  3.2km/h 75.9% 0.00in /  0mm 0 W/m2
23:49 59.7 °F /  15.4 °C 52.3 °F /  11.3 °C 30.00in /  1015.8hPa Calm   1mph /  1.6km/h 76.3% 0.00in /  0mm 0 W/m2
23:54 59.5 °F /  15.3 °C 52.3 °F /  11.3 °C 30.00in /  1015.8hPa Calm     77% 0.00in /  0mm 0 W/m2
23:59 59.4 °F /  15.2 °C 52.3 °F /  11.3 °C 30.00in /  1015.8hPa Calm     77.3% 0.00in /  0mm 0 W/m2
Bath Spa Weather
Compliments of Weather Underground - 2 mb